Time;durP1;ratioP1;P1;durP2;ratioP2;P2;SDS_P1;SDS_P2;PMS_P1;PMS_P2;Temp;Humidity;BMP_temperature;BMP_pressure;BME280_temperature;BME280_humidity;BME280_pressure;Samples;Min_cycle;Max_cycle;Signal;HPM_P1;HPM_P2
2022/05/25 00:01:49;;;;;;;4.07;2.00;;;;;;;;;;4938896;29;20039;-67
2022/05/25 00:04:18;;;;;;;3.45;2.13;;;;;;;;;;4943749;29;20039;-67
2022/05/25 00:06:44;;;;;;;4.10;1.90;;;;;;;;;;4945837;28;20047;-67
2022/05/25 00:09:10;;;;;;;3.53;2.10;;;;;;;;;;4942611;28;20084;-67
2022/05/25 00:11:35;;;;;;;4.03;2.20;;;;;;;;;;4941732;28;20043;-67
2022/05/25 00:14:02;;;;;;;3.90;1.92;;;;;;;;;;4932094;28;20043;-67
2022/05/25 00:16:27;;;;;;;4.22;2.22;;;;;;;;;;4941205;28;20424;-67
2022/05/25 00:21:36;;;;;;;4.18;2.00;;;;;;;;;;4942791;28;20042;-67
2022/05/25 00:24:02;;;;;;;6.97;2.80;;;;;;;;;;4943804;28;20050;-67
2022/05/25 00:26:27;;;;;;;5.88;2.38;;;;;;;;;;4944018;28;20477;-67
2022/05/25 00:28:52;;;;;;;3.67;1.98;;;;;;;;;;4945674;28;20055;-67
2022/05/25 00:31:18;;;;;;;3.15;1.98;;;;;;;;;;4944900;28;20490;-67
2022/05/25 00:33:43;;;;;;;4.18;2.30;;;;;;;;;;4945198;28;20484;-67
2022/05/25 00:36:09;;;;;;;4.70;2.53;;;;;;;;;;4945885;28;20482;-67
2022/05/25 00:38:34;;;;;;;8.65;2.33;;;;;;;;;;4941461;28;20697;-67
2022/05/25 00:40:59;;;;;;;5.65;2.70;;;;;;;;;;4934343;28;20756;-67
2022/05/25 00:43:25;;;;;;;5.82;2.78;;;;;;;;;;4941083;28;20435;-67
2022/05/25 00:45:58;;;;;;;6.63;2.85;;;;;;;;;;4949689;28;20039;-68
2022/05/25 00:48:33;;;;;;;4.18;2.58;;;;;;;;;;4941955;28;20557;-67
2022/05/25 00:51:13;;;;;;;8.25;2.78;;;;;;;;;;4949003;28;20495;-67
2022/05/25 00:53:44;;;;;;;3.50;2.33;;;;;;;;;;4948431;28;20496;-67
2022/05/25 00:56:13;;;;;;;8.18;2.70;;;;;;;;;;4944810;28;20032;-67
2022/05/25 00:58:42;;;;;;;5.15;2.40;;;;;;;;;;4943557;28;20039;-67
2022/05/25 01:01:08;;;;;;;4.10;2.50;;;;;;;;;;4947982;28;20830;-67
2022/05/25 01:03:33;;;;;;;4.57;2.72;;;;;;;;;;4947073;28;20043;-67
2022/05/25 01:06:38;;;;;;;4.13;2.63;;;;;;;;;;4947846;28;20048;-67
2022/05/25 01:09:38;;;;;;;6.85;2.50;;;;;;;;;;4972500;28;20559;-67
2022/05/25 01:12:26;;;;;;;3.75;2.30;;;;;;;;;;4946249;29;20047;-67
2022/05/25 01:15:17;;;;;;;6.30;2.42;;;;;;;;;;4957256;28;20079;-67
2022/05/25 01:18:23;;;;;;;6.20;2.58;;;;;;;;;;4948263;28;20109;-67
2022/05/25 01:21:02;;;;;;;5.50;2.60;;;;;;;;;;4954369;28;20065;-67
2022/05/25 01:23:52;;;;;;;6.55;2.55;;;;;;;;;;4944379;28;20070;-67
2022/05/25 01:26:24;;;;;;;5.32;2.63;;;;;;;;;;4944837;28;20043;-67
2022/05/25 01:29:01;;;;;;;4.30;2.70;;;;;;;;;;4948141;28;20039;-67
2022/05/25 01:31:37;;;;;;;4.30;2.60;;;;;;;;;;4946947;28;20047;-67
2022/05/25 01:34:10;;;;;;;8.32;2.60;;;;;;;;;;4951377;28;20122;-67
2022/05/25 01:36:50;;;;;;;4.13;2.38;;;;;;;;;;4947879;28;20051;-67
2022/05/25 01:39:24;;;;;;;4.88;2.58;;;;;;;;;;4945477;29;20023;-67
2022/05/25 01:41:58;;;;;;;6.30;2.53;;;;;;;;;;4949572;28;20547;-67
2022/05/25 01:44:29;;;;;;;4.55;2.50;;;;;;;;;;4935183;29;20039;-67
2022/05/25 01:47:01;;;;;;;4.53;2.67;;;;;;;;;;4947409;28;20044;-67
2022/05/25 01:49:35;;;;;;;6.47;2.70;;;;;;;;;;4943405;28;20043;-67
2022/05/25 01:52:04;;;;;;;6.22;2.63;;;;;;;;;;4947626;28;20142;-67
2022/05/25 01:54:36;;;;;;;5.55;2.58;;;;;;;;;;4938056;28;20496;-67
2022/05/25 01:57:08;;;;;;;3.17;2.30;;;;;;;;;;4945920;29;20031;-67
2022/05/25 01:59:33;;;;;;;7.38;2.60;;;;;;;;;;4947492;28;20120;-67
2022/05/25 02:04:19;;;;;;;4.85;2.40;;;;;;;;;;4946520;28;20051;-67
2022/05/25 02:04:59;;;;;;;4.65;2.45;;;;;;;;;;4947378;28;20512;-67
2022/05/25 02:07:52;;;;;;;3.88;2.30;;;;;;;;;;4947361;28;20031;-67
2022/05/25 02:10:20;;;;;;;3.55;2.20;;;;;;;;;;4943832;28;20051;-67
2022/05/25 02:13:00;;;;;;;4.15;2.28;;;;;;;;;;4932218;28;20059;-67
2022/05/25 02:15:52;;;;;;;4.75;2.65;;;;;;;;;;4939089;28;20100;-67
2022/05/25 02:18:29;;;;;;;3.80;2.40;;;;;;;;;;4945130;29;20034;-67
2022/05/25 02:21:03;;;;;;;5.85;2.70;;;;;;;;;;4946608;28;20057;-67
2022/05/25 02:23:33;;;;;;;6.28;2.80;;;;;;;;;;4944055;28;20143;-67
2022/05/25 02:26:09;;;;;;;4.07;2.50;;;;;;;;;;4945721;28;20055;-67
2022/05/25 02:28:40;;;;;;;6.32;2.47;;;;;;;;;;4957963;28;20095;-67
2022/05/25 02:31:09;;;;;;;6.10;3.10;;;;;;;;;;4946431;28;20043;-68
2022/05/25 02:33:41;;;;;;;6.90;3.17;;;;;;;;;;4946755;28;20452;-67
2022/05/25 02:36:09;;;;;;;4.03;2.67;;;;;;;;;;4947561;28;20408;-67
2022/05/25 02:38:41;;;;;;;4.63;2.40;;;;;;;;;;4946562;28;20035;-67
2022/05/25 02:41:24;;;;;;;4.60;3.08;;;;;;;;;;4950096;28;20763;-67
2022/05/25 02:43:49;;;;;;;5.38;2.67;;;;;;;;;;4954512;28;20051;-67
2022/05/25 02:46:15;;;;;;;3.90;2.50;;;;;;;;;;4947245;28;20066;-67
2022/05/25 02:48:40;;;;;;;4.60;2.50;;;;;;;;;;4934264;28;20063;-67
2022/05/25 02:51:05;;;;;;;5.88;2.88;;;;;;;;;;4939128;29;20105;-67
2022/05/25 02:53:30;;;;;;;6.68;2.60;;;;;;;;;;4940902;28;20039;-67
2022/05/25 02:55:56;;;;;;;4.75;2.72;;;;;;;;;;4957135;28;20039;-67
2022/05/25 02:58:21;;;;;;;4.00;2.47;;;;;;;;;;4942071;28;20636;-67
2022/05/25 03:00:47;;;;;;;5.68;2.58;;;;;;;;;;4938899;28;20054;-67
2022/05/25 03:03:12;;;;;;;5.25;2.47;;;;;;;;;;4947129;28;20097;-67
2022/05/25 03:05:39;;;;;;;4.47;2.38;;;;;;;;;;4945702;28;20035;-67
2022/05/25 03:08:05;;;;;;;4.85;2.03;;;;;;;;;;4942736;28;20042;-67
2022/05/25 03:10:31;;;;;;;4.03;2.20;;;;;;;;;;4945840;28;20043;-67
2022/05/25 03:12:56;;;;;;;3.45;1.95;;;;;;;;;;4946818;28;20566;-68
2022/05/25 03:15:21;;;;;;;7.25;2.22;;;;;;;;;;4943697;28;20062;-67
2022/05/25 03:17:47;;;;;;;3.00;2.03;;;;;;;;;;4941855;28;20058;-67
2022/05/25 03:20:15;;;;;;;3.78;3.00;;;;;;;;;;4946059;28;20043;-67
2022/05/25 03:22:44;;;;;;;5.03;2.10;;;;;;;;;;4945410;28;20039;-67
2022/05/25 03:25:10;;;;;;;4.80;2.10;;;;;;;;;;4947562;28;20079;-67
2022/05/25 03:27:36;;;;;;;4.70;2.40;;;;;;;;;;4946017;28;20519;-67
2022/05/25 03:30:04;;;;;;;5.38;2.50;;;;;;;;;;4942619;28;20062;-67
2022/05/25 03:32:29;;;;;;;7.45;2.40;;;;;;;;;;4946089;28;20039;-67
2022/05/25 03:34:54;;;;;;;3.35;2.30;;;;;;;;;;4937765;28;20047;-67
2022/05/25 03:37:20;;;;;;;6.57;2.72;;;;;;;;;;4941582;28;20127;-67
2022/05/25 03:39:45;;;;;;;4.70;2.30;;;;;;;;;;4941622;28;20047;-67
2022/05/25 03:42:15;;;;;;;4.32;2.17;;;;;;;;;;4945378;28;20023;-67
2022/05/25 03:44:40;;;;;;;7.47;2.45;;;;;;;;;;4945863;28;20036;-67
2022/05/25 03:47:05;;;;;;;5.05;2.35;;;;;;;;;;4946126;28;20038;-67
2022/05/25 03:49:31;;;;;;;3.90;2.38;;;;;;;;;;4949741;28;20070;-67
2022/05/25 03:51:56;;;;;;;4.38;2.33;;;;;;;;;;4944184;28;20036;-67
2022/05/25 03:54:22;;;;;;;3.30;1.90;;;;;;;;;;4943458;28;20027;-67
2022/05/25 03:56:48;;;;;;;5.32;2.08;;;;;;;;;;4940776;28;20078;-67
2022/05/25 03:59:13;;;;;;;8.07;2.10;;;;;;;;;;4941595;28;20043;-67
2022/05/25 04:01:38;;;;;;;4.65;2.40;;;;;;;;;;4945015;28;20051;-67
2022/05/25 04:04:05;;;;;;;3.92;2.00;;;;;;;;;;4944812;28;20039;-67
2022/05/25 04:06:30;;;;;;;3.30;1.88;;;;;;;;;;4945771;28;20038;-67
2022/05/25 04:08:56;;;;;;;3.35;1.95;;;;;;;;;;4945832;28;20027;-67
2022/05/25 04:11:21;;;;;;;4.05;1.92;;;;;;;;;;4945723;28;20090;-67
2022/05/25 04:13:46;;;;;;;6.13;2.20;;;;;;;;;;4943375;28;20055;-67
2022/05/25 04:16:12;;;;;;;3.22;2.30;;;;;;;;;;4948556;28;20054;-67
2022/05/25 04:18:37;;;;;;;4.30;1.85;;;;;;;;;;4948575;28;20024;-67
2022/05/25 04:21:03;;;;;;;3.55;1.95;;;;;;;;;;4964267;28;20051;-67
2022/05/25 04:23:28;;;;;;;4.47;2.10;;;;;;;;;;4942047;28;20118;-67
2022/05/25 04:25:54;;;;;;;3.95;2.20;;;;;;;;;;4948535;28;20051;-67
2022/05/25 04:28:20;;;;;;;3.40;2.03;;;;;;;;;;4944417;28;20039;-67
2022/05/25 04:30:46;;;;;;;3.38;1.95;;;;;;;;;;4959208;28;20050;-68
2022/05/25 04:33:12;;;;;;;3.75;1.90;;;;;;;;;;4949285;28;20126;-67
2022/05/25 04:35:37;;;;;;;3.15;2.00;;;;;;;;;;4948638;28;20522;-67
2022/05/25 04:38:03;;;;;;;6.05;1.90;;;;;;;;;;4948178;28;20066;-67
2022/05/25 04:40:31;;;;;;;6.75;1.98;;;;;;;;;;4948674;28;20472;-67
2022/05/25 04:42:59;;;;;;;2.85;1.90;;;;;;;;;;4948748;28;20565;-67
2022/05/25 04:45:26;;;;;;;10.07;2.05;;;;;;;;;;4944013;28;20043;-67
2022/05/25 04:47:53;;;;;;;4.13;2.10;;;;;;;;;;4948455;28;20035;-67
2022/05/25 04:50:20;;;;;;;3.58;1.80;;;;;;;;;;4945911;28;20851;-68
2022/05/25 04:52:46;;;;;;;3.22;1.70;;;;;;;;;;4947196;28;20051;-67
2022/05/25 04:57:56;;;;;;;5.13;2.15;;;;;;;;;;4945032;28;20045;-68
2022/05/25 05:00:21;;;;;;;5.75;2.00;;;;;;;;;;4947787;28;20118;-67
2022/05/25 05:02:46;;;;;;;3.35;1.92;;;;;;;;;;4948309;28;20047;-67
2022/05/25 05:05:14;;;;;;;4.28;2.42;;;;;;;;;;4948043;28;20035;-67
2022/05/25 05:07:40;;;;;;;7.85;2.28;;;;;;;;;;4947909;28;20035;-67
2022/05/25 05:10:06;;;;;;;3.53;2.00;;;;;;;;;;4946561;28;20049;-67
2022/05/25 05:12:31;;;;;;;2.60;1.85;;;;;;;;;;4947956;28;20480;-67
2022/05/25 05:15:00;;;;;;;5.57;2.10;;;;;;;;;;4948790;28;20035;-67
2022/05/25 05:17:25;;;;;;;3.92;1.95;;;;;;;;;;4948211;28;20043;-68
2022/05/25 05:19:50;;;;;;;5.47;2.63;;;;;;;;;;4947456;28;20070;-68
2022/05/25 05:22:17;;;;;;;5.68;2.30;;;;;;;;;;4936747;28;20051;-68
2022/05/25 05:24:42;;;;;;;3.13;1.80;;;;;;;;;;4941003;28;20031;-68
2022/05/25 05:27:08;;;;;;;7.78;2.10;;;;;;;;;;4946826;28;20054;-68
2022/05/25 05:29:33;;;;;;;4.00;2.15;;;;;;;;;;4946524;28;20058;-68
2022/05/25 05:31:59;;;;;;;4.47;1.95;;;;;;;;;;4947982;28;20043;-69
2022/05/25 05:34:28;;;;;;;5.90;2.25;;;;;;;;;;4947959;28;20550;-69
2022/05/25 05:37:02;;;;;;;7.88;2.95;;;;;;;;;;4948129;28;20035;-69
2022/05/25 05:39:32;;;;;;;4.28;2.30;;;;;;;;;;4961969;28;20031;-69
2022/05/25 05:41:57;;;;;;;4.38;2.40;;;;;;;;;;4951803;28;20023;-68
2022/05/25 05:44:27;;;;;;;5.25;2.42;;;;;;;;;;4943463;28;20527;-68
2022/05/25 05:46:58;;;;;;;5.53;2.63;;;;;;;;;;4946060;28;20036;-68
2022/05/25 05:49:24;;;;;;;3.88;2.10;;;;;;;;;;4944289;28;20054;-69
2022/05/25 05:51:50;;;;;;;4.75;3.30;;;;;;;;;;4945072;28;20043;-69
2022/05/25 05:54:16;;;;;;;4.55;2.60;;;;;;;;;;4938636;28;20420;-69
2022/05/25 05:56:43;;;;;;;3.20;2.38;;;;;;;;;;4943099;28;20793;-69
2022/05/25 05:59:08;;;;;;;7.82;2.33;;;;;;;;;;4939558;28;20823;-68
2022/05/25 06:01:33;;;;;;;7.07;2.40;;;;;;;;;;4944668;28;20042;-69
2022/05/25 06:03:59;;;;;;;5.93;2.55;;;;;;;;;;4942606;28;20042;-68
2022/05/25 06:06:24;;;;;;;4.88;2.50;;;;;;;;;;4939169;29;20031;-67
2022/05/25 06:08:50;;;;;;;5.85;2.90;;;;;;;;;;4943340;28;20043;-68
2022/05/25 06:11:17;;;;;;;6.47;2.90;;;;;;;;;;4942981;28;20043;-68
2022/05/25 06:13:43;;;;;;;8.20;2.85;;;;;;;;;;4942361;28;20416;-68
2022/05/25 06:21:37;;;;;;;5.65;2.47;;;;;;;;;;4939332;28;20058;-69
2022/05/25 06:24:03;;;;;;;7.03;2.65;;;;;;;;;;4941271;28;20416;-68
2022/05/25 06:26:30;;;;;;;5.05;2.47;;;;;;;;;;4942365;28;20039;-68
2022/05/25 06:28:57;;;;;;;5.05;2.50;;;;;;;;;;4940039;28;20467;-68
2022/05/25 06:31:23;;;;;;;4.53;2.58;;;;;;;;;;4941561;28;20043;-69
2022/05/25 06:33:49;;;;;;;6.53;2.35;;;;;;;;;;4932414;28;20043;-67
2022/05/25 06:36:19;;;;;;;6.75;2.78;;;;;;;;;;4951034;28;20056;-67
2022/05/25 06:38:45;;;;;;;3.78;2.55;;;;;;;;;;4938431;28;20047;-69
2022/05/25 06:41:11;;;;;;;3.92;2.50;;;;;;;;;;4942454;28;20051;-68
2022/05/25 06:43:37;;;;;;;6.00;2.67;;;;;;;;;;4939355;28;20447;-68
2022/05/25 06:46:03;;;;;;;6.50;3.00;;;;;;;;;;4933845;28;20154;-68
2022/05/25 06:48:29;;;;;;;5.18;2.80;;;;;;;;;;4935273;28;20031;-68
2022/05/25 06:50:54;;;;;;;5.70;2.55;;;;;;;;;;4937699;28;20096;-68
2022/05/25 06:53:20;;;;;;;3.72;2.40;;;;;;;;;;4940812;28;20061;-68
2022/05/25 06:55:46;;;;;;;7.80;2.47;;;;;;;;;;4937849;28;20051;-68
2022/05/25 06:58:11;;;;;;;3.00;1.95;;;;;;;;;;4936793;28;20043;-68
2022/05/25 07:00:37;;;;;;;4.47;2.63;;;;;;;;;;4937639;28;20657;-68
2022/05/25 07:03:04;;;;;;;7.35;2.88;;;;;;;;;;4939004;28;20030;-68
2022/05/25 07:05:29;;;;;;;6.50;2.80;;;;;;;;;;4939393;28;20120;-67
2022/05/25 07:07:55;;;;;;;5.32;2.75;;;;;;;;;;4941728;28;20035;-68
2022/05/25 07:10:20;;;;;;;7.68;3.03;;;;;;;;;;4935743;28;20051;-67
2022/05/25 07:12:46;;;;;;;4.43;2.97;;;;;;;;;;4935097;28;20055;-69
2022/05/25 07:15:11;;;;;;;7.80;3.33;;;;;;;;;;4938402;29;20164;-69
2022/05/25 07:17:37;;;;;;;5.30;2.85;;;;;;;;;;4937260;28;20051;-67
2022/05/25 07:20:06;;;;;;;12.63;3.22;;;;;;;;;;4938585;28;20055;-67
2022/05/25 07:22:32;;;;;;;4.97;2.97;;;;;;;;;;4937115;28;20551;-67
2022/05/25 07:24:57;;;;;;;6.45;3.00;;;;;;;;;;4937665;28;20049;-67
2022/05/25 07:27:22;;;;;;;27.15;3.45;;;;;;;;;;4935945;28;20027;-68
2022/05/25 07:29:48;;;;;;;7.63;3.35;;;;;;;;;;4941557;28;20043;-67
2022/05/25 07:32:14;;;;;;;6.10;2.90;;;;;;;;;;4942865;28;20134;-67
2022/05/25 07:34:45;;;;;;;5.93;2.78;;;;;;;;;;4943131;28;20039;-67
2022/05/25 07:37:21;;;;;;;9.95;3.10;;;;;;;;;;4936365;28;20059;-68
2022/05/25 07:40:01;;;;;;;14.05;3.22;;;;;;;;;;4938634;28;20051;-67
2022/05/25 07:42:30;;;;;;;8.65;2.80;;;;;;;;;;4936497;28;20043;-67
2022/05/25 07:44:57;;;;;;;6.25;2.78;;;;;;;;;;4934780;29;20035;-67
2022/05/25 07:47:24;;;;;;;5.47;2.58;;;;;;;;;;4940585;28;20471;-67
2022/05/25 07:49:49;;;;;;;4.43;2.65;;;;;;;;;;4934969;28;20174;-68
2022/05/25 07:52:15;;;;;;;8.77;2.95;;;;;;;;;;4939983;28;20169;-69
2022/05/25 07:54:44;;;;;;;8.15;2.70;;;;;;;;;;4938455;28;20507;-67
2022/05/25 07:57:10;;;;;;;5.53;2.67;;;;;;;;;;4944962;28;21286;-65
2022/05/25 07:59:36;;;;;;;6.40;3.00;;;;;;;;;;4942914;28;20730;-65
2022/05/25 08:07:36;;;;;;;9.27;3.25;;;;;;;;;;4938558;28;20122;-65
2022/05/25 08:10:09;;;;;;;5.38;2.70;;;;;;;;;;4943416;28;20035;-65
2022/05/25 08:12:37;;;;;;;10.50;2.60;;;;;;;;;;4960024;28;20059;-65
2022/05/25 08:15:04;;;;;;;5.30;2.40;;;;;;;;;;4944656;29;20027;-66
2022/05/25 08:17:29;;;;;;;7.15;2.40;;;;;;;;;;4945587;28;20737;-65
2022/05/25 08:19:55;;;;;;;4.65;1.90;;;;;;;;;;4944078;28;20048;-66
2022/05/25 08:22:20;;;;;;;5.70;2.47;;;;;;;;;;4941124;28;20051;-66
2022/05/25 08:24:45;;;;;;;5.28;2.40;;;;;;;;;;4937562;28;20047;-65
2022/05/25 08:27:11;;;;;;;6.07;2.70;;;;;;;;;;4945539;29;20041;-65
2022/05/25 08:29:36;;;;;;;5.35;2.40;;;;;;;;;;4947645;28;20535;-66
2022/05/25 08:32:01;;;;;;;7.57;3.53;;;;;;;;;;4941501;28;20122;-65
2022/05/25 08:34:28;;;;;;;4.32;2.80;;;;;;;;;;4941816;28;20052;-65
2022/05/25 08:37:08;;;;;;;5.85;2.90;;;;;;;;;;4940929;28;20833;-68
2022/05/25 08:39:33;;;;;;;5.63;2.05;;;;;;;;;;4941832;28;20088;-67
2022/05/25 08:42:05;;;;;;;5.93;2.75;;;;;;;;;;4943542;29;20019;-69
2022/05/25 08:44:31;;;;;;;4.55;2.10;;;;;;;;;;4940314;28;20054;-67
2022/05/25 08:47:00;;;;;;;4.45;2.40;;;;;;;;;;4945991;28;20043;-65
2022/05/25 08:49:30;;;;;;;4.22;2.58;;;;;;;;;;4947927;28;20477;-65
2022/05/25 08:51:58;;;;;;;4.55;2.58;;;;;;;;;;4945089;28;20145;-66
2022/05/25 08:54:27;;;;;;;4.07;2.10;;;;;;;;;;4942731;29;20042;-66
2022/05/25 08:57:12;;;;;;;3.58;2.00;;;;;;;;;;4937369;28;20106;-65
2022/05/25 08:59:42;;;;;;;4.50;2.20;;;;;;;;;;4945771;28;20047;-65
2022/05/25 09:02:45;;;;;;;4.80;2.10;;;;;;;;;;4939347;29;20067;-66
2022/05/25 09:05:25;;;;;;;4.88;1.77;;;;;;;;;;4949321;28;20050;-66
2022/05/25 09:08:21;;;;;;;2.83;1.60;;;;;;;;;;4937163;28;20063;-66
2022/05/25 09:10:54;;;;;;;5.03;1.50;;;;;;;;;;4936502;28;20054;-65
2022/05/25 09:13:40;;;;;;;;;;;;;;;;;;4936922;28;20058;-66
2022/05/25 09:16:15;;;;;;;5.15;1.65;;;;;;;;;;4940550;28;19926;-66
2022/05/25 09:19:13;;;;;;;3.97;1.45;;;;;;;;;;4941737;28;20035;-66
2022/05/25 09:22:06;;;;;;;1.70;1.27;;;;;;;;;;4965765;28;20780;-67
2022/05/25 09:24:33;;;;;;;7.18;1.60;;;;;;;;;;4943460;28;20075;-64
2022/05/25 09:27:00;;;;;;;7.35;1.50;;;;;;;;;;4942882;28;20035;-66
2022/05/25 09:29:26;;;;;;;1.77;1.00;;;;;;;;;;4946525;28;20058;-65
2022/05/25 09:32:04;;;;;;;13.15;1.23;;;;;;;;;;4944440;28;20043;-66
2022/05/25 09:34:49;;;;;;;5.43;1.40;;;;;;;;;;4948454;28;20065;-65
2022/05/25 09:37:43;;;;;;;2.00;1.10;;;;;;;;;;4935016;29;20043;-66
2022/05/25 09:40:38;;;;;;;2.28;1.23;;;;;;;;;;4976881;28;20035;-66
2022/05/25 09:43:08;;;;;;;7.32;1.55;;;;;;;;;;4933408;28;20096;-66
2022/05/25 09:45:54;;;;;;;2.88;1.50;;;;;;;;;;4931622;28;20031;-68
2022/05/25 09:48:47;;;;;;;3.72;1.30;;;;;;;;;;4940221;28;20039;-67
2022/05/25 09:51:37;;;;;;;3.17;1.20;;;;;;;;;;4940755;28;20118;-67
2022/05/25 09:54:32;;;;;;;2.60;1.17;;;;;;;;;;4935193;28;20078;-68
2022/05/25 09:57:09;;;;;;;3.60;1.50;;;;;;;;;;4949926;28;20058;-68
2022/05/25 09:59:43;;;;;;;1.88;1.17;;;;;;;;;;4934034;28;20052;-66
2022/05/25 10:02:30;;;;;;;3.58;1.30;;;;;;;;;;4936109;28;20560;-68
2022/05/25 10:05:09;;;;;;;4.70;1.08;;;;;;;;;;4943635;28;20109;-67
2022/05/25 10:07:37;;;;;;;3.10;1.50;;;;;;;;;;4965332;28;20046;-66
2022/05/25 10:10:09;;;;;;;1.17;1.08;;;;;;;;;;4940071;28;20093;-66
2022/05/25 10:12:38;;;;;;;3.97;1.13;;;;;;;;;;4938819;28;20569;-66
2022/05/25 10:15:16;;;;;;;3.35;1.10;;;;;;;;;;4936657;28;20035;-66
2022/05/25 10:17:47;;;;;;;3.28;1.20;;;;;;;;;;4933322;28;20527;-66
2022/05/25 10:20:28;;;;;;;1.67;1.08;;;;;;;;;;4937799;28;20474;-67
2022/05/25 10:23:07;;;;;;;2.53;1.00;;;;;;;;;;4936005;28;20047;-68
2022/05/25 10:25:47;;;;;;;1.88;1.10;;;;;;;;;;4940890;28;20050;-67
2022/05/25 10:28:27;;;;;;;4.03;1.00;;;;;;;;;;4938132;28;20744;-67
2022/05/25 10:36:52;;;;;;;2.42;1.00;;;;;;;;;;4937405;28;20977;-67
2022/05/25 10:39:24;;;;;;;2.55;1.20;;;;;;;;;;4934436;28;20493;-67
2022/05/25 10:42:18;;;;;;;3.75;1.50;;;;;;;;;;4938164;28;20043;-68
2022/05/25 10:44:53;;;;;;;1.73;1.25;;;;;;;;;;4951722;28;20047;-67
2022/05/25 10:47:38;;;;;;;5.65;1.10;;;;;;;;;;4935561;28;20048;-68
2022/05/25 10:50:08;;;;;;;1.80;1.08;;;;;;;;;;4940673;28;20046;-67
2022/05/25 10:52:38;;;;;;;5.45;1.30;;;;;;;;;;4933997;28;20057;-66
2022/05/25 10:55:05;;;;;;;2.05;1.30;;;;;;;;;;4935178;28;20057;-67
2022/05/25 10:57:59;;;;;;;3.60;1.30;;;;;;;;;;4936609;28;20165;-67
2022/05/25 11:00:45;;;;;;;3.65;1.40;;;;;;;;;;4938821;29;20483;-66
2022/05/25 11:03:26;;;;;;;3.17;1.40;;;;;;;;;;4937992;28;20055;-67
2022/05/25 11:05:57;;;;;;;1.95;1.30;;;;;;;;;;4941516;28;20101;-67
2022/05/25 11:08:50;;;;;;;3.70;1.55;;;;;;;;;;4935812;28;21187;-67
2022/05/25 11:11:53;;;;;;;2.03;1.23;;;;;;;;;;4919045;28;20665;-66
2022/05/25 11:14:43;;;;;;;2.53;1.50;;;;;;;;;;4934839;28;20812;-66
2022/05/25 11:17:56;;;;;;;3.58;1.30;;;;;;;;;;4933897;28;20616;-67
2022/05/25 11:20:22;;;;;;;2.55;1.23;;;;;;;;;;5010472;28;20054;-67
2022/05/25 11:23:23;;;;;;;1.88;1.20;;;;;;;;;;5012304;28;20127;-68
2022/05/25 11:26:13;;;;;;;1.92;1.25;;;;;;;;;;4957355;28;20032;-67
2022/05/25 11:28:46;;;;;;;1.50;1.15;;;;;;;;;;4943446;28;20051;-66
2022/05/25 11:31:33;;;;;;;2.28;1.52;;;;;;;;;;4950026;28;20073;-67
2022/05/25 11:34:20;;;;;;;1.73;1.40;;;;;;;;;;4929865;28;20645;-67
2022/05/25 11:36:57;;;;;;;1.75;1.00;;;;;;;;;;4933948;28;20039;-68
2022/05/25 11:39:31;;;;;;;2.10;1.00;;;;;;;;;;4946272;28;20035;-67
2022/05/25 11:42:13;;;;;;;1.35;1.05;;;;;;;;;;4935986;28;20075;-68
2022/05/25 11:44:58;;;;;;;3.78;1.00;;;;;;;;;;4927664;29;20126;-68
2022/05/25 11:47:42;;;;;;;2.85;1.10;;;;;;;;;;4935240;28;20151;-68
2022/05/25 11:50:54;;;;;;;5.05;1.10;;;;;;;;;;4934697;28;20126;-68
2022/05/25 11:53:57;;;;;;;2.03;0.90;;;;;;;;;;4976958;28;20052;-67
2022/05/25 11:56:48;;;;;;;2.95;1.13;;;;;;;;;;4937564;29;20077;-66
2022/05/25 11:59:36;;;;;;;1.10;1.00;;;;;;;;;;4938079;28;20052;-67
2022/05/25 12:02:19;;;;;;;2.10;1.42;;;;;;;;;;4950414;28;20051;-67
2022/05/25 12:04:57;;;;;;;;;;;;;;;;;;4934393;28;20138;-67
2022/05/25 12:07:44;;;;;;;2.33;1.00;;;;;;;;;;4947031;28;19918;-67
2022/05/25 12:10:36;;;;;;;3.47;1.10;;;;;;;;;;4944800;28;20043;-67
2022/05/25 12:13:12;;;;;;;2.60;1.00;;;;;;;;;;4940040;28;20050;-68
2022/05/25 12:16:03;;;;;;;5.68;1.30;;;;;;;;;;4934245;28;20031;-68
2022/05/25 12:19:03;;;;;;;1.80;1.10;;;;;;;;;;4940081;28;20479;-66
2022/05/25 12:21:41;;;;;;;2.78;1.10;;;;;;;;;;4950861;28;20118;-69
2022/05/25 12:24:06;;;;;;;2.67;1.10;;;;;;;;;;4936810;28;20840;-67
2022/05/25 12:26:36;;;;;;;2.97;0.93;;;;;;;;;;4939860;28;20051;-67
2022/05/25 12:29:22;;;;;;;3.28;1.10;;;;;;;;;;4945754;28;20646;-67
2022/05/25 12:31:52;;;;;;;1.40;1.10;;;;;;;;;;4940598;28;20047;-68
2022/05/25 12:34:25;;;;;;;2.78;1.15;;;;;;;;;;4932864;28;20043;-68
2022/05/25 12:36:51;;;;;;;2.63;1.15;;;;;;;;;;4938856;28;20044;-67
2022/05/25 12:39:42;;;;;;;1.33;1.10;;;;;;;;;;4941571;28;20046;-67
2022/05/25 12:42:22;;;;;;;2.60;1.25;;;;;;;;;;4939638;28;20055;-67
2022/05/25 12:50:41;;;;;;;1.45;1.20;;;;;;;;;;4938564;28;20097;-67
2022/05/25 12:53:28;;;;;;;2.85;1.10;;;;;;;;;;4937267;28;20051;-67
2022/05/25 12:55:57;;;;;;;2.83;1.10;;;;;;;;;;4935620;28;20047;-68
2022/05/25 12:58:42;;;;;;;3.22;1.40;;;;;;;;;;4937567;28;20055;-68
2022/05/25 13:01:22;;;;;;;3.58;1.40;;;;;;;;;;4940015;28;20050;-67
2022/05/25 13:03:48;;;;;;;3.13;1.70;;;;;;;;;;4938662;28;20138;-68
2022/05/25 13:06:17;;;;;;;4.78;1.60;;;;;;;;;;4932635;28;20423;-68
2022/05/25 13:08:55;;;;;;;2.85;1.40;;;;;;;;;;4945545;28;20751;-67
2022/05/25 13:11:29;;;;;;;2.05;1.40;;;;;;;;;;4939681;28;20043;-67
2022/05/25 13:13:56;;;;;;;1.75;1.50;;;;;;;;;;4937574;28;20527;-67
2022/05/25 13:16:40;;;;;;;2.20;1.80;;;;;;;;;;4940907;28;20055;-69
2022/05/25 13:19:16;;;;;;;2.53;1.60;;;;;;;;;;4940413;28;20087;-67
2022/05/25 13:22:03;;;;;;;2.63;1.35;;;;;;;;;;4939691;28;20035;-68
2022/05/25 13:24:41;;;;;;;4.18;1.55;;;;;;;;;;4948111;28;20066;-67
2022/05/25 13:27:15;;;;;;;1.60;1.50;;;;;;;;;;4940929;28;20035;-67
2022/05/25 13:30:02;;;;;;;2.13;1.73;;;;;;;;;;4954411;28;20069;-67
2022/05/25 13:32:39;;;;;;;2.75;1.40;;;;;;;;;;4933873;28;20040;-67
2022/05/25 13:35:19;;;;;;;3.88;1.73;;;;;;;;;;4937254;28;20511;-67
2022/05/25 13:37:49;;;;;;;3.85;1.70;;;;;;;;;;4942093;28;20049;-67
2022/05/25 13:40:14;;;;;;;8.68;1.70;;;;;;;;;;4934398;28;20039;-67
2022/05/25 13:42:43;;;;;;;3.42;1.50;;;;;;;;;;4937360;28;20057;-69
2022/05/25 13:45:18;;;;;;;2.55;1.77;;;;;;;;;;4942765;28;20031;-66
2022/05/25 13:47:55;;;;;;;7.70;1.90;;;;;;;;;;4955964;28;20457;-68
2022/05/25 13:50:39;;;;;;;7.13;1.90;;;;;;;;;;4940144;28;20039;-67
2022/05/25 13:53:08;;;;;;;2.08;1.80;;;;;;;;;;4940967;28;20093;-68
2022/05/25 13:55:36;;;;;;;3.40;1.58;;;;;;;;;;4937021;28;20047;-68
2022/05/25 13:58:07;;;;;;;3.80;2.08;;;;;;;;;;4942291;28;20849;-68
2022/05/25 14:00:47;;;;;;;4.93;2.13;;;;;;;;;;4938236;28;20460;-68
2022/05/25 14:03:16;;;;;;;5.05;1.92;;;;;;;;;;4944328;28;20031;-68
2022/05/25 14:05:44;;;;;;;2.88;1.80;;;;;;;;;;4938893;28;20050;-67
2022/05/25 14:08:21;;;;;;;2.75;1.42;;;;;;;;;;4938860;28;20052;-67
2022/05/25 14:10:59;;;;;;;1.98;1.58;;;;;;;;;;4937649;28;20074;-67
2022/05/25 14:13:36;;;;;;;7.05;2.05;;;;;;;;;;4937649;28;20703;-68
2022/05/25 14:16:11;;;;;;;2.90;1.90;;;;;;;;;;4936886;28;20044;-68
2022/05/25 14:18:54;;;;;;;2.78;1.83;;;;;;;;;;4939480;28;20070;-68
2022/05/25 14:21:49;;;;;;;3.63;1.80;;;;;;;;;;4965581;28;20049;-69
2022/05/25 14:24:32;;;;;;;3.65;2.20;;;;;;;;;;4937586;28;20596;-68
2022/05/25 14:27:00;;;;;;;3.60;1.52;;;;;;;;;;4953979;28;20043;-68
2022/05/25 14:29:29;;;;;;;5.35;1.77;;;;;;;;;;4981260;28;20416;-69
2022/05/25 14:31:57;;;;;;;4.00;1.75;;;;;;;;;;4942354;28;20495;-68
2022/05/25 14:34:26;;;;;;;3.30;2.00;;;;;;;;;;4943864;28;20046;-69
2022/05/25 14:36:55;;;;;;;3.13;1.98;;;;;;;;;;4940784;28;20119;-69
2022/05/25 14:39:33;;;;;;;3.13;2.10;;;;;;;;;;4965233;28;20067;-68
2022/05/25 14:42:04;;;;;;;4.15;1.90;;;;;;;;;;4938911;28;20138;-68
2022/05/25 14:44:42;;;;;;;2.80;2.10;;;;;;;;;;4942212;28;20055;-68
2022/05/25 14:47:31;;;;;;;2.53;1.90;;;;;;;;;;4941090;28;20059;-69
2022/05/25 14:50:18;;;;;;;4.63;2.40;;;;;;;;;;4938090;28;20055;-68
2022/05/25 14:53:11;;;;;;;3.67;1.50;;;;;;;;;;4947613;28;20037;-68
2022/05/25 14:55:39;;;;;;;4.63;1.85;;;;;;;;;;4941333;28;20077;-68
2022/05/25 14:58:20;;;;;;;2.20;1.63;;;;;;;;;;4938932;28;20047;-68
2022/05/25 15:00:55;;;;;;;3.72;1.80;;;;;;;;;;4937469;28;20093;-69
2022/05/25 15:03:32;;;;;;;3.83;1.90;;;;;;;;;;4937283;28;20038;-69
2022/05/25 15:06:12;;;;;;;7.00;1.90;;;;;;;;;;4946302;28;20743;-68
2022/05/25 15:08:52;;;;;;;3.83;1.90;;;;;;;;;;4935805;28;20042;-68
2022/05/25 15:11:17;;;;;;;4.03;1.90;;;;;;;;;;4935745;28;20040;-68
2022/05/25 15:19:11;;;;;;;3.50;1.60;;;;;;;;;;4939479;28;20097;-68
2022/05/25 15:21:38;;;;;;;6.20;2.00;;;;;;;;;;4939632;28;20061;-68
2022/05/25 15:24:06;;;;;;;2.67;1.60;;;;;;;;;;4938403;29;20030;-68
2022/05/25 15:26:38;;;;;;;6.07;1.90;;;;;;;;;;4940554;28;20043;-68
2022/05/25 15:29:25;;;;;;;2.40;1.55;;;;;;;;;;4940294;28;20039;-68
2022/05/25 15:31:51;;;;;;;6.50;2.22;;;;;;;;;;4939373;28;20047;-68
2022/05/25 15:34:16;;;;;;;2.95;1.67;;;;;;;;;;4938327;28;20051;-68
2022/05/25 15:36:41;;;;;;;4.00;1.67;;;;;;;;;;4941269;28;20050;-69
2022/05/25 15:39:14;;;;;;;2.83;1.63;;;;;;;;;;4938767;28;20030;-68
2022/05/25 15:41:40;;;;;;;3.80;1.73;;;;;;;;;;4939640;28;20039;-68
2022/05/25 15:44:05;;;;;;;5.40;1.73;;;;;;;;;;4939233;28;20515;-68
2022/05/25 15:46:34;;;;;;;2.80;1.35;;;;;;;;;;4937481;28;20557;-68
2022/05/25 15:48:59;;;;;;;2.20;1.50;;;;;;;;;;4939316;28;20616;-68
2022/05/25 15:51:31;;;;;;;3.70;1.40;;;;;;;;;;4934740;28;20023;-68